sensor_id;sensor_type;location;lat;lon;timestamp;P1;durP1;ratioP1;P2;durP2;ratioP2
10432;SDS011;5263;48.680;9.004;2022-07-06T00:01:44;1.90;;;0.80;;
10432;SDS011;5263;48.680;9.004;2022-07-06T00:04:10;0.80;;;0.80;;
10432;SDS011;5263;48.680;9.004;2022-07-06T00:06:36;2.07;;;0.90;;
10432;SDS011;5263;48.680;9.004;2022-07-06T00:09:02;1.00;;;0.90;;
10432;SDS011;5263;48.680;9.004;2022-07-06T00:11:28;5.60;;;0.90;;
10432;SDS011;5263;48.680;9.004;2022-07-06T00:13:54;0.90;;;0.90;;
10432;SDS011;5263;48.680;9.004;2022-07-06T00:16:21;2.43;;;0.97;;
10432;SDS011;5263;48.680;9.004;2022-07-06T00:18:47;3.93;;;0.93;;
10432;SDS011;5263;48.680;9.004;2022-07-06T00:21:13;1.40;;;0.83;;
10432;SDS011;5263;48.680;9.004;2022-07-06T00:23:39;2.20;;;0.80;;
10432;SDS011;5263;48.680;9.004;2022-07-06T00:26:05;3.60;;;1.00;;
10432;SDS011;5263;48.680;9.004;2022-07-06T00:28:30;1.63;;;0.80;;
10432;SDS011;5263;48.680;9.004;2022-07-06T00:30:56;0.80;;;0.80;;
10432;SDS011;5263;48.680;9.004;2022-07-06T00:33:22;0.93;;;0.90;;
10432;SDS011;5263;48.680;9.004;2022-07-06T00:35:47;0.83;;;0.73;;
10432;SDS011;5263;48.680;9.004;2022-07-06T00:38:14;2.40;;;0.90;;
10432;SDS011;5263;48.680;9.004;2022-07-06T00:40:39;1.23;;;0.70;;
10432;SDS011;5263;48.680;9.004;2022-07-06T00:43:05;2.50;;;0.70;;
10432;SDS011;5263;48.680;9.004;2022-07-06T00:45:30;4.93;;;0.60;;
10432;SDS011;5263;48.680;9.004;2022-07-06T00:47:56;1.23;;;0.80;;
10432;SDS011;5263;48.680;9.004;2022-07-06T00:50:22;3.57;;;0.97;;
10432;SDS011;5263;48.680;9.004;2022-07-06T00:52:48;0.83;;;0.83;;
10432;SDS011;5263;48.680;9.004;2022-07-06T00:55:34;0.80;;;0.80;;
10432;SDS011;5263;48.680;9.004;2022-07-06T00:58:02;1.07;;;0.77;;
10432;SDS011;5263;48.680;9.004;2022-07-06T01:00:29;3.00;;;0.97;;
10432;SDS011;5263;48.680;9.004;2022-07-06T01:02:55;2.93;;;0.90;;
10432;SDS011;5263;48.680;9.004;2022-07-06T01:05:21;0.80;;;0.60;;
10432;SDS011;5263;48.680;9.004;2022-07-06T01:07:47;0.87;;;0.80;;
10432;SDS011;5263;48.680;9.004;2022-07-06T01:10:15;2.33;;;0.80;;
10432;SDS011;5263;48.680;9.004;2022-07-06T01:12:42;1.80;;;1.00;;
10432;SDS011;5263;48.680;9.004;2022-07-06T01:15:11;1.37;;;0.90;;
10432;SDS011;5263;48.680;9.004;2022-07-06T01:17:39;1.93;;;0.90;;
10432;SDS011;5263;48.680;9.004;2022-07-06T01:22:39;1.40;;;0.87;;
10432;SDS011;5263;48.680;9.004;2022-07-06T01:25:05;1.00;;;0.90;;
10432;SDS011;5263;48.680;9.004;2022-07-06T01:27:32;2.53;;;0.70;;
10432;SDS011;5263;48.680;9.004;2022-07-06T01:30:08;1.33;;;0.87;;
10432;SDS011;5263;48.680;9.004;2022-07-06T01:32:35;5.40;;;1.07;;
10432;SDS011;5263;48.680;9.004;2022-07-06T01:35:02;2.30;;;0.93;;
10432;SDS011;5263;48.680;9.004;2022-07-06T01:37:29;2.10;;;1.00;;
10432;SDS011;5263;48.680;9.004;2022-07-06T01:40:02;1.67;;;0.83;;
10432;SDS011;5263;48.680;9.004;2022-07-06T01:42:29;3.43;;;1.00;;
10432;SDS011;5263;48.680;9.004;2022-07-06T01:44:55;3.10;;;0.87;;
10432;SDS011;5263;48.680;9.004;2022-07-06T01:47:21;6.17;;;0.90;;
10432;SDS011;5263;48.680;9.004;2022-07-06T01:49:47;1.47;;;0.87;;
10432;SDS011;5263;48.680;9.004;2022-07-06T01:52:12;7.10;;;0.80;;
10432;SDS011;5263;48.680;9.004;2022-07-06T01:54:38;1.20;;;0.70;;
10432;SDS011;5263;48.680;9.004;2022-07-06T01:57:04;1.03;;;0.80;;
10432;SDS011;5263;48.680;9.004;2022-07-06T01:59:29;2.00;;;0.90;;
10432;SDS011;5263;48.680;9.004;2022-07-06T02:01:55;1.23;;;0.83;;
10432;SDS011;5263;48.680;9.004;2022-07-06T02:04:21;3.63;;;0.93;;
10432;SDS011;5263;48.680;9.004;2022-07-06T02:06:46;3.97;;;0.63;;
10432;SDS011;5263;48.680;9.004;2022-07-06T02:09:12;2.33;;;1.00;;
10432;SDS011;5263;48.680;9.004;2022-07-06T02:11:38;3.90;;;1.00;;
10432;SDS011;5263;48.680;9.004;2022-07-06T02:14:03;2.43;;;0.90;;
10432;SDS011;5263;48.680;9.004;2022-07-06T02:16:29;2.43;;;1.00;;
10432;SDS011;5263;48.680;9.004;2022-07-06T02:18:54;3.93;;;1.00;;
10432;SDS011;5263;48.680;9.004;2022-07-06T02:21:20;4.23;;;1.00;;
10432;SDS011;5263;48.680;9.004;2022-07-06T02:23:46;0.90;;;0.80;;
10432;SDS011;5263;48.680;9.004;2022-07-06T02:26:11;1.97;;;0.90;;
10432;SDS011;5263;48.680;9.004;2022-07-06T02:28:37;2.80;;;0.90;;
10432;SDS011;5263;48.680;9.004;2022-07-06T02:31:02;2.67;;;0.90;;
10432;SDS011;5263;48.680;9.004;2022-07-06T02:33:28;1.17;;;0.70;;
10432;SDS011;5263;48.680;9.004;2022-07-06T02:35:53;1.00;;;0.70;;
10432;SDS011;5263;48.680;9.004;2022-07-06T02:38:19;7.10;;;0.80;;
10432;SDS011;5263;48.680;9.004;2022-07-06T02:40:45;3.07;;;0.70;;
10432;SDS011;5263;48.680;9.004;2022-07-06T02:43:10;4.77;;;0.90;;
10432;SDS011;5263;48.680;9.004;2022-07-06T02:45:36;1.03;;;0.80;;
10432;SDS011;5263;48.680;9.004;2022-07-06T02:48:01;1.87;;;1.03;;
10432;SDS011;5263;48.680;9.004;2022-07-06T02:50:27;2.10;;;0.90;;
10432;SDS011;5263;48.680;9.004;2022-07-06T02:52:53;5.00;;;2.40;;
10432;SDS011;5263;48.680;9.004;2022-07-06T02:55:20;6.27;;;1.33;;
10432;SDS011;5263;48.680;9.004;2022-07-06T02:57:45;2.87;;;0.93;;
10432;SDS011;5263;48.680;9.004;2022-07-06T03:00:11;2.83;;;1.07;;
10432;SDS011;5263;48.680;9.004;2022-07-06T03:02:37;4.07;;;0.90;;
10432;SDS011;5263;48.680;9.004;2022-07-06T03:05:03;5.03;;;1.10;;
10432;SDS011;5263;48.680;9.004;2022-07-06T03:07:29;2.17;;;1.00;;
10432;SDS011;5263;48.680;9.004;2022-07-06T03:09:54;2.90;;;1.20;;
10432;SDS011;5263;48.680;9.004;2022-07-06T03:12:20;1.60;;;1.00;;
10432;SDS011;5263;48.680;9.004;2022-07-06T03:14:46;2.20;;;1.10;;
10432;SDS011;5263;48.680;9.004;2022-07-06T03:17:11;4.33;;;1.03;;
10432;SDS011;5263;48.680;9.004;2022-07-06T03:19:37;3.43;;;1.10;;
10432;SDS011;5263;48.680;9.004;2022-07-06T03:22:03;3.07;;;1.27;;
10432;SDS011;5263;48.680;9.004;2022-07-06T03:24:28;8.47;;;1.07;;
10432;SDS011;5263;48.680;9.004;2022-07-06T03:26:54;4.00;;;1.27;;
10432;SDS011;5263;48.680;9.004;2022-07-06T03:29:20;7.27;;;1.40;;
10432;SDS011;5263;48.680;9.004;2022-07-06T03:31:45;3.23;;;1.47;;
10432;SDS011;5263;48.680;9.004;2022-07-06T03:34:11;2.10;;;1.20;;
10432;SDS011;5263;48.680;9.004;2022-07-06T03:36:37;3.17;;;1.37;;
10432;SDS011;5263;48.680;9.004;2022-07-06T03:39:02;3.77;;;1.67;;
10432;SDS011;5263;48.680;9.004;2022-07-06T03:41:28;5.70;;;1.90;;
10432;SDS011;5263;48.680;9.004;2022-07-06T03:43:54;4.10;;;1.70;;
10432;SDS011;5263;48.680;9.004;2022-07-06T03:46:19;7.90;;;1.50;;
10432;SDS011;5263;48.680;9.004;2022-07-06T03:48:45;2.50;;;1.50;;
10432;SDS011;5263;48.680;9.004;2022-07-06T03:51:10;1.40;;;1.30;;
10432;SDS011;5263;48.680;9.004;2022-07-06T03:53:36;5.07;;;1.70;;
10432;SDS011;5263;48.680;9.004;2022-07-06T03:56:02;3.20;;;1.53;;
10432;SDS011;5263;48.680;9.004;2022-07-06T03:58:46;3.17;;;1.97;;
10432;SDS011;5263;48.680;9.004;2022-07-06T04:01:12;2.93;;;1.83;;
10432;SDS011;5263;48.680;9.004;2022-07-06T04:03:37;4.47;;;2.20;;
10432;SDS011;5263;48.680;9.004;2022-07-06T04:06:03;5.10;;;2.10;;
10432;SDS011;5263;48.680;9.004;2022-07-06T04:08:29;3.43;;;1.97;;
10432;SDS011;5263;48.680;9.004;2022-07-06T04:10:55;4.63;;;1.90;;
10432;SDS011;5263;48.680;9.004;2022-07-06T04:13:20;2.47;;;2.17;;
10432;SDS011;5263;48.680;9.004;2022-07-06T04:15:46;3.67;;;2.07;;
10432;SDS011;5263;48.680;9.004;2022-07-06T04:18:12;2.80;;;1.77;;
10432;SDS011;5263;48.680;9.004;2022-07-06T04:20:37;4.20;;;1.93;;
10432;SDS011;5263;48.680;9.004;2022-07-06T04:23:03;1.60;;;1.50;;
10432;SDS011;5263;48.680;9.004;2022-07-06T04:25:29;4.70;;;1.97;;
10432;SDS011;5263;48.680;9.004;2022-07-06T04:27:54;7.20;;;1.90;;
10432;SDS011;5263;48.680;9.004;2022-07-06T04:30:20;5.73;;;1.73;;
10432;SDS011;5263;48.680;9.004;2022-07-06T04:32:45;3.20;;;1.90;;
10432;SDS011;5263;48.680;9.004;2022-07-06T04:35:11;4.20;;;2.43;;
10432;SDS011;5263;48.680;9.004;2022-07-06T04:37:36;7.07;;;2.37;;
10432;SDS011;5263;48.680;9.004;2022-07-06T04:40:02;4.27;;;2.20;;
10432;SDS011;5263;48.680;9.004;2022-07-06T04:42:28;5.70;;;2.53;;
10432;SDS011;5263;48.680;9.004;2022-07-06T04:44:54;4.03;;;2.27;;
10432;SDS011;5263;48.680;9.004;2022-07-06T04:47:20;3.77;;;2.57;;
10432;SDS011;5263;48.680;9.004;2022-07-06T04:49:45;11.73;;;2.60;;
10432;SDS011;5263;48.680;9.004;2022-07-06T04:52:11;2.80;;;2.43;;
10432;SDS011;5263;48.680;9.004;2022-07-06T04:54:36;4.10;;;2.10;;
10432;SDS011;5263;48.680;9.004;2022-07-06T04:57:02;5.30;;;2.23;;
10432;SDS011;5263;48.680;9.004;2022-07-06T04:59:28;9.77;;;3.33;;
10432;SDS011;5263;48.680;9.004;2022-07-06T05:01:54;8.57;;;2.77;;
10432;SDS011;5263;48.680;9.004;2022-07-06T05:04:19;7.00;;;2.80;;
10432;SDS011;5263;48.680;9.004;2022-07-06T05:06:45;3.53;;;2.40;;
10432;SDS011;5263;48.680;9.004;2022-07-06T05:09:12;6.43;;;2.73;;
10432;SDS011;5263;48.680;9.004;2022-07-06T05:11:38;2.47;;;2.03;;
10432;SDS011;5263;48.680;9.004;2022-07-06T05:14:04;10.13;;;2.67;;
10432;SDS011;5263;48.680;9.004;2022-07-06T05:16:30;3.07;;;2.57;;
10432;SDS011;5263;48.680;9.004;2022-07-06T05:18:56;7.93;;;2.43;;
10432;SDS011;5263;48.680;9.004;2022-07-06T05:21:21;4.50;;;2.70;;
10432;SDS011;5263;48.680;9.004;2022-07-06T05:23:47;5.80;;;2.20;;
10432;SDS011;5263;48.680;9.004;2022-07-06T05:26:12;5.80;;;2.40;;
10432;SDS011;5263;48.680;9.004;2022-07-06T05:28:38;9.70;;;2.10;;
10432;SDS011;5263;48.680;9.004;2022-07-06T05:31:03;10.03;;;2.10;;
10432;SDS011;5263;48.680;9.004;2022-07-06T05:33:29;7.50;;;2.93;;
10432;SDS011;5263;48.680;9.004;2022-07-06T05:35:55;7.00;;;2.27;;
10432;SDS011;5263;48.680;9.004;2022-07-06T05:38:20;9.47;;;2.70;;
10432;SDS011;5263;48.680;9.004;2022-07-06T05:40:46;6.17;;;1.93;;
10432;SDS011;5263;48.680;9.004;2022-07-06T05:43:12;3.70;;;2.00;;
10432;SDS011;5263;48.680;9.004;2022-07-06T05:45:37;6.60;;;1.90;;
10432;SDS011;5263;48.680;9.004;2022-07-06T05:48:03;2.33;;;2.13;;
10432;SDS011;5263;48.680;9.004;2022-07-06T05:50:47;2.13;;;1.93;;
10432;SDS011;5263;48.680;9.004;2022-07-06T05:53:13;5.40;;;2.30;;
10432;SDS011;5263;48.680;9.004;2022-07-06T05:55:38;8.70;;;2.33;;
10432;SDS011;5263;48.680;9.004;2022-07-06T05:58:04;5.43;;;1.73;;
10432;SDS011;5263;48.680;9.004;2022-07-06T06:00:29;5.87;;;1.90;;
10432;SDS011;5263;48.680;9.004;2022-07-06T06:02:55;4.30;;;1.97;;
10432;SDS011;5263;48.680;9.004;2022-07-06T06:05:25;4.10;;;2.40;;
10432;SDS011;5263;48.680;9.004;2022-07-06T06:07:51;1.90;;;1.57;;
10432;SDS011;5263;48.680;9.004;2022-07-06T06:10:18;6.40;;;1.80;;
10432;SDS011;5263;48.680;9.004;2022-07-06T06:12:44;2.67;;;1.63;;
10432;SDS011;5263;48.680;9.004;2022-07-06T06:15:10;5.37;;;2.00;;
10432;SDS011;5263;48.680;9.004;2022-07-06T06:17:36;2.60;;;1.83;;
10432;SDS011;5263;48.680;9.004;2022-07-06T06:20:04;3.43;;;1.43;;
10432;SDS011;5263;48.680;9.004;2022-07-06T06:22:31;4.13;;;1.77;;
10432;SDS011;5263;48.680;9.004;2022-07-06T06:25:09;4.30;;;1.90;;
10432;SDS011;5263;48.680;9.004;2022-07-06T06:27:34;2.77;;;1.73;;
10432;SDS011;5263;48.680;9.004;2022-07-06T06:30:00;3.23;;;1.67;;
10432;SDS011;5263;48.680;9.004;2022-07-06T06:32:25;2.80;;;1.50;;
10432;SDS011;5263;48.680;9.004;2022-07-06T06:34:51;2.17;;;1.30;;
10432;SDS011;5263;48.680;9.004;2022-07-06T06:37:17;4.63;;;1.30;;
10432;SDS011;5263;48.680;9.004;2022-07-06T06:39:42;2.50;;;1.43;;
10432;SDS011;5263;48.680;9.004;2022-07-06T06:42:08;1.60;;;1.23;;
10432;SDS011;5263;48.680;9.004;2022-07-06T06:44:33;4.80;;;1.60;;
10432;SDS011;5263;48.680;9.004;2022-07-06T06:46:59;2.77;;;1.50;;
10432;SDS011;5263;48.680;9.004;2022-07-06T06:49:25;4.67;;;1.43;;
10432;SDS011;5263;48.680;9.004;2022-07-06T06:51:50;3.97;;;1.20;;
10432;SDS011;5263;48.680;9.004;2022-07-06T06:54:16;2.07;;;1.17;;
10432;SDS011;5263;48.680;9.004;2022-07-06T06:56:41;2.67;;;1.67;;
10432;SDS011;5263;48.680;9.004;2022-07-06T06:59:07;3.63;;;1.40;;
10432;SDS011;5263;48.680;9.004;2022-07-06T07:01:32;1.40;;;1.30;;
10432;SDS011;5263;48.680;9.004;2022-07-06T07:03:58;1.83;;;1.17;;
10432;SDS011;5263;48.680;9.004;2022-07-06T07:06:24;3.77;;;1.23;;
10432;SDS011;5263;48.680;9.004;2022-07-06T07:08:49;3.80;;;1.40;;
10432;SDS011;5263;48.680;9.004;2022-07-06T07:11:15;2.57;;;1.90;;
10432;SDS011;5263;48.680;9.004;2022-07-06T07:13:40;3.77;;;1.57;;
10432;SDS011;5263;48.680;9.004;2022-07-06T07:16:06;3.33;;;1.30;;
10432;SDS011;5263;48.680;9.004;2022-07-06T07:18:32;1.60;;;1.40;;
10432;SDS011;5263;48.680;9.004;2022-07-06T07:20:57;3.17;;;1.47;;
10432;SDS011;5263;48.680;9.004;2022-07-06T07:23:23;3.03;;;1.13;;
10432;SDS011;5263;48.680;9.004;2022-07-06T07:25:49;5.33;;;1.27;;
10432;SDS011;5263;48.680;9.004;2022-07-06T07:28:14;3.43;;;1.27;;
10432;SDS011;5263;48.680;9.004;2022-07-06T07:30:40;3.50;;;0.97;;
10432;SDS011;5263;48.680;9.004;2022-07-06T07:33:06;5.17;;;1.20;;
10432;SDS011;5263;48.680;9.004;2022-07-06T07:35:32;3.43;;;1.17;;
10432;SDS011;5263;48.680;9.004;2022-07-06T07:37:58;2.90;;;1.10;;
10432;SDS011;5263;48.680;9.004;2022-07-06T07:40:23;1.90;;;0.90;;
10432;SDS011;5263;48.680;9.004;2022-07-06T07:42:49;2.60;;;1.30;;
10432;SDS011;5263;48.680;9.004;2022-07-06T07:45:15;2.60;;;1.20;;
10432;SDS011;5263;48.680;9.004;2022-07-06T07:47:41;3.43;;;1.10;;
10432;SDS011;5263;48.680;9.004;2022-07-06T07:50:07;7.33;;;1.07;;
10432;SDS011;5263;48.680;9.004;2022-07-06T07:52:33;2.00;;;1.03;;
10432;SDS011;5263;48.680;9.004;2022-07-06T07:54:59;1.33;;;0.97;;
10432;SDS011;5263;48.680;9.004;2022-07-06T07:57:24;2.70;;;1.20;;
10432;SDS011;5263;48.680;9.004;2022-07-06T07:59:50;1.47;;;0.97;;
10432;SDS011;5263;48.680;9.004;2022-07-06T08:02:15;4.93;;;1.50;;
10432;SDS011;5263;48.680;9.004;2022-07-06T08:04:41;2.20;;;1.13;;
10432;SDS011;5263;48.680;9.004;2022-07-06T08:07:07;2.00;;;1.10;;
10432;SDS011;5263;48.680;9.004;2022-07-06T08:09:32;2.07;;;1.10;;
10432;SDS011;5263;48.680;9.004;2022-07-06T08:11:58;2.53;;;1.20;;
10432;SDS011;5263;48.680;9.004;2022-07-06T08:14:24;7.00;;;1.10;;
10432;SDS011;5263;48.680;9.004;2022-07-06T08:16:50;4.00;;;1.00;;
10432;SDS011;5263;48.680;9.004;2022-07-06T08:19:16;2.13;;;1.10;;
10432;SDS011;5263;48.680;9.004;2022-07-06T08:21:42;1.40;;;1.10;;
10432;SDS011;5263;48.680;9.004;2022-07-06T08:24:08;3.10;;;0.90;;
10432;SDS011;5263;48.680;9.004;2022-07-06T08:26:33;5.83;;;1.17;;
10432;SDS011;5263;48.680;9.004;2022-07-06T08:28:59;9.73;;;1.00;;
10432;SDS011;5263;48.680;9.004;2022-07-06T08:31:25;0.67;;;0.63;;
10432;SDS011;5263;48.680;9.004;2022-07-06T08:33:54;0.80;;;0.80;;
10432;SDS011;5263;48.680;9.004;2022-07-06T08:36:20;3.80;;;0.90;;
10432;SDS011;5263;48.680;9.004;2022-07-06T08:38:47;1.47;;;0.70;;
10432;SDS011;5263;48.680;9.004;2022-07-06T08:41:13;1.70;;;0.80;;
10432;SDS011;5263;48.680;9.004;2022-07-06T08:43:40;2.73;;;1.03;;
10432;SDS011;5263;48.680;9.004;2022-07-06T08:46:07;1.23;;;0.70;;
10432;SDS011;5263;48.680;9.004;2022-07-06T08:48:35;5.13;;;0.87;;
10432;SDS011;5263;48.680;9.004;2022-07-06T08:51:02;0.90;;;0.80;;
10432;SDS011;5263;48.680;9.004;2022-07-06T08:53:29;3.50;;;0.80;;
10432;SDS011;5263;48.680;9.004;2022-07-06T08:55:54;2.63;;;1.07;;
10432;SDS011;5263;48.680;9.004;2022-07-06T08:58:20;3.60;;;0.90;;
10432;SDS011;5263;48.680;9.004;2022-07-06T09:00:50;4.00;;;0.87;;
10432;SDS011;5263;48.680;9.004;2022-07-06T09:03:15;2.90;;;1.10;;
10432;SDS011;5263;48.680;9.004;2022-07-06T09:05:42;0.87;;;0.80;;
10432;SDS011;5263;48.680;9.004;2022-07-06T09:08:11;2.90;;;0.80;;
10432;SDS011;5263;48.680;9.004;2022-07-06T09:10:36;11.10;;;1.40;;
10432;SDS011;5263;48.680;9.004;2022-07-06T09:13:06;1.23;;;1.10;;
10432;SDS011;5263;48.680;9.004;2022-07-06T09:15:33;1.17;;;1.00;;
10432;SDS011;5263;48.680;9.004;2022-07-06T09:18:00;1.50;;;0.80;;
10432;SDS011;5263;48.680;9.004;2022-07-06T09:20:26;2.70;;;0.80;;
10432;SDS011;5263;48.680;9.004;2022-07-06T09:23:02;1.07;;;0.70;;
10432;SDS011;5263;48.680;9.004;2022-07-06T09:25:29;4.03;;;1.00;;
10432;SDS011;5263;48.680;9.004;2022-07-06T09:27:56;4.43;;;1.10;;
10432;SDS011;5263;48.680;9.004;2022-07-06T09:30:23;3.67;;;1.10;;
10432;SDS011;5263;48.680;9.004;2022-07-06T09:32:51;1.80;;;1.03;;
10432;SDS011;5263;48.680;9.004;2022-07-06T09:35:22;5.10;;;1.10;;
10432;SDS011;5263;48.680;9.004;2022-07-06T09:37:59;1.40;;;0.90;;
10432;SDS011;5263;48.680;9.004;2022-07-06T09:40:26;2.80;;;1.23;;
10432;SDS011;5263;48.680;9.004;2022-07-06T09:42:51;5.57;;;0.90;;
10432;SDS011;5263;48.680;9.004;2022-07-06T09:45:33;2.83;;;1.33;;
10432;SDS011;5263;48.680;9.004;2022-07-06T09:48:05;3.53;;;1.23;;
10432;SDS011;5263;48.680;9.004;2022-07-06T09:50:38;3.03;;;1.13;;
10432;SDS011;5263;48.680;9.004;2022-07-06T09:53:09;1.03;;;0.93;;
10432;SDS011;5263;48.680;9.004;2022-07-06T09:55:35;1.73;;;0.80;;
10432;SDS011;5263;48.680;9.004;2022-07-06T09:58:02;4.63;;;1.53;;
10432;SDS011;5263;48.680;9.004;2022-07-06T10:00:28;6.87;;;1.80;;
10432;SDS011;5263;48.680;9.004;2022-07-06T10:02:54;2.87;;;1.00;;
10432;SDS011;5263;48.680;9.004;2022-07-06T10:05:21;5.50;;;1.20;;
10432;SDS011;5263;48.680;9.004;2022-07-06T10:07:58;3.17;;;1.10;;
10432;SDS011;5263;48.680;9.004;2022-07-06T10:10:25;3.43;;;1.00;;
10432;SDS011;5263;48.680;9.004;2022-07-06T10:12:53;3.07;;;0.83;;
10432;SDS011;5263;48.680;9.004;2022-07-06T10:15:21;6.00;;;1.90;;
10432;SDS011;5263;48.680;9.004;2022-07-06T10:17:51;3.53;;;0.90;;
10432;SDS011;5263;48.680;9.004;2022-07-06T10:20:17;6.77;;;1.27;;
10432;SDS011;5263;48.680;9.004;2022-07-06T10:22:45;2.23;;;0.70;;
10432;SDS011;5263;48.680;9.004;2022-07-06T10:25:13;2.60;;;1.00;;
10432;SDS011;5263;48.680;9.004;2022-07-06T10:27:40;3.20;;;1.33;;
10432;SDS011;5263;48.680;9.004;2022-07-06T10:30:08;4.83;;;0.87;;
10432;SDS011;5263;48.680;9.004;2022-07-06T10:32:35;3.83;;;1.10;;
10432;SDS011;5263;48.680;9.004;2022-07-06T10:35:04;1.30;;;1.10;;
10432;SDS011;5263;48.680;9.004;2022-07-06T10:37:30;2.40;;;1.10;;
10432;SDS011;5263;48.680;9.004;2022-07-06T10:39:57;2.90;;;1.00;;
10432;SDS011;5263;48.680;9.004;2022-07-06T10:42:55;1.30;;;1.00;;
10432;SDS011;5263;48.680;9.004;2022-07-06T10:48:15;2.97;;;0.73;;
10432;SDS011;5263;48.680;9.004;2022-07-06T10:53:24;4.93;;;1.20;;
10432;SDS011;5263;48.680;9.004;2022-07-06T10:55:55;3.57;;;1.10;;
10432;SDS011;5263;48.680;9.004;2022-07-06T10:58:34;3.73;;;1.03;;
10432;SDS011;5263;48.680;9.004;2022-07-06T11:01:06;2.63;;;0.90;;
10432;SDS011;5263;48.680;9.004;2022-07-06T11:08:48;4.17;;;1.10;;
10432;SDS011;5263;48.680;9.004;2022-07-06T11:11:22;8.27;;;1.40;;
10432;SDS011;5263;48.680;9.004;2022-07-06T11:14:04;2.07;;;0.83;;
10432;SDS011;5263;48.680;9.004;2022-07-06T11:16:36;2.97;;;0.93;;
10432;SDS011;5263;48.680;9.004;2022-07-06T11:19:14;4.07;;;0.97;;
10432;SDS011;5263;48.680;9.004;2022-07-06T11:24:23;3.58;;;0.88;;
10432;SDS011;5263;48.680;9.004;2022-07-06T11:26:57;2.28;;;1.40;;
10432;SDS011;5263;48.680;9.004;2022-07-06T11:29:24;1.80;;;1.02;;
10432;SDS011;5263;48.680;9.004;2022-07-06T11:31:51;6.63;;;1.17;;
10432;SDS011;5263;48.680;9.004;2022-07-06T11:34:20;4.72;;;1.10;;
10432;SDS011;5263;48.680;9.004;2022-07-06T11:36:56;4.32;;;1.05;;
10432;SDS011;5263;48.680;9.004;2022-07-06T11:39:27;4.73;;;1.30;;
10432;SDS011;5263;48.680;9.004;2022-07-06T11:41:54;6.27;;;1.13;;
10432;SDS011;5263;48.680;9.004;2022-07-06T11:44:20;5.97;;;1.23;;
10432;SDS011;5263;48.680;9.004;2022-07-06T11:46:46;5.50;;;1.50;;
10432;SDS011;5263;48.680;9.004;2022-07-06T11:49:12;4.60;;;1.60;;
10432;SDS011;5263;48.680;9.004;2022-07-06T11:51:38;3.50;;;1.57;;
10432;SDS011;5263;48.680;9.004;2022-07-06T11:54:09;3.90;;;1.17;;
10432;SDS011;5263;48.680;9.004;2022-07-06T11:56:37;2.73;;;0.90;;
10432;SDS011;5263;48.680;9.004;2022-07-06T11:59:10;2.00;;;1.30;;
10432;SDS011;5263;48.680;9.004;2022-07-06T12:01:35;3.03;;;1.20;;
10432;SDS011;5263;48.680;9.004;2022-07-06T12:04:06;6.03;;;1.30;;
10432;SDS011;5263;48.680;9.004;2022-07-06T12:06:32;2.37;;;1.37;;
10432;SDS011;5263;48.680;9.004;2022-07-06T12:08:59;2.43;;;0.90;;
10432;SDS011;5263;48.680;9.004;2022-07-06T12:11:38;3.27;;;1.33;;
10432;SDS011;5263;48.680;9.004;2022-07-06T12:14:15;4.20;;;0.90;;
10432;SDS011;5263;48.680;9.004;2022-07-06T12:16:46;4.80;;;1.10;;
10432;SDS011;5263;48.680;9.004;2022-07-06T12:19:13;8.13;;;1.33;;
10432;SDS011;5263;48.680;9.004;2022-07-06T12:21:49;1.93;;;1.00;;
10432;SDS011;5263;48.680;9.004;2022-07-06T12:24:20;4.17;;;1.37;;
10432;SDS011;5263;48.680;9.004;2022-07-06T12:26:50;3.43;;;1.10;;
10432;SDS011;5263;48.680;9.004;2022-07-06T12:29:17;2.97;;;1.30;;
10432;SDS011;5263;48.680;9.004;2022-07-06T12:31:43;2.72;;;1.30;;
10432;SDS011;5263;48.680;9.004;2022-07-06T12:36:55;3.03;;;1.05;;
10432;SDS011;5263;48.680;9.004;2022-07-06T12:39:26;3.30;;;0.90;;
10432;SDS011;5263;48.680;9.004;2022-07-06T12:41:54;4.85;;;1.08;;
10432;SDS011;5263;48.680;9.004;2022-07-06T12:44:28;4.05;;;1.23;;
10432;SDS011;5263;48.680;9.004;2022-07-06T12:49:30;6.15;;;1.10;;
10432;SDS011;5263;48.680;9.004;2022-07-06T12:54:36;2.42;;;1.02;;
10432;SDS011;5263;48.680;9.004;2022-07-06T12:57:08;2.38;;;0.88;;
10432;SDS011;5263;48.680;9.004;2022-07-06T12:59:42;3.83;;;1.00;;
10432;SDS011;5263;48.680;9.004;2022-07-06T13:02:31;8.93;;;1.60;;
10432;SDS011;5263;48.680;9.004;2022-07-06T13:05:00;1.90;;;1.20;;
10432;SDS011;5263;48.680;9.004;2022-07-06T13:07:31;4.23;;;1.00;;
10432;SDS011;5263;48.680;9.004;2022-07-06T13:10:01;3.33;;;0.83;;
10432;SDS011;5263;48.680;9.004;2022-07-06T13:12:34;5.97;;;1.13;;
10432;SDS011;5263;48.680;9.004;2022-07-06T13:15:01;3.20;;;1.00;;
10432;SDS011;5263;48.680;9.004;2022-07-06T13:17:28;3.60;;;0.90;;
10432;SDS011;5263;48.680;9.004;2022-07-06T13:19:53;3.20;;;1.20;;
10432;SDS011;5263;48.680;9.004;2022-07-06T13:22:19;4.90;;;1.10;;
10432;SDS011;5263;48.680;9.004;2022-07-06T13:24:45;4.60;;;1.40;;
10432;SDS011;5263;48.680;9.004;2022-07-06T13:27:10;2.83;;;0.80;;
10432;SDS011;5263;48.680;9.004;2022-07-06T13:29:36;5.80;;;1.23;;
10432;SDS011;5263;48.680;9.004;2022-07-06T13:32:02;3.33;;;0.90;;
10432;SDS011;5263;48.680;9.004;2022-07-06T13:34:29;1.83;;;0.90;;
10432;SDS011;5263;48.680;9.004;2022-07-06T13:36:54;2.03;;;1.03;;
10432;SDS011;5263;48.680;9.004;2022-07-06T13:39:20;4.57;;;1.00;;
10432;SDS011;5263;48.680;9.004;2022-07-06T13:41:45;3.03;;;1.13;;
10432;SDS011;5263;48.680;9.004;2022-07-06T13:44:11;4.00;;;1.07;;
10432;SDS011;5263;48.680;9.004;2022-07-06T13:46:37;5.47;;;1.03;;
10432;SDS011;5263;48.680;9.004;2022-07-06T13:49:07;4.17;;;1.10;;
10432;SDS011;5263;48.680;9.004;2022-07-06T13:51:33;2.53;;;0.70;;
10432;SDS011;5263;48.680;9.004;2022-07-06T13:53:59;6.33;;;0.90;;
10432;SDS011;5263;48.680;9.004;2022-07-06T13:56:25;1.88;;;0.90;;
10432;SDS011;5263;48.680;9.004;2022-07-06T13:58:52;3.25;;;0.80;;
10432;SDS011;5263;48.680;9.004;2022-07-06T14:01:18;2.28;;;0.90;;
10432;SDS011;5263;48.680;9.004;2022-07-06T14:03:44;1.90;;;0.70;;
10432;SDS011;5263;48.680;9.004;2022-07-06T14:06:10;1.65;;;0.90;;
10432;SDS011;5263;48.680;9.004;2022-07-06T14:08:36;0.75;;;0.70;;
10432;SDS011;5263;48.680;9.004;2022-07-06T14:11:04;2.65;;;0.80;;
10432;SDS011;5263;48.680;9.004;2022-07-06T14:13:32;2.47;;;0.75;;
10432;SDS011;5263;48.680;9.004;2022-07-06T14:15:58;2.92;;;0.80;;
10432;SDS011;5263;48.680;9.004;2022-07-06T14:18:24;2.15;;;0.90;;
10432;SDS011;5263;48.680;9.004;2022-07-06T14:20:50;3.20;;;0.70;;
10432;SDS011;5263;48.680;9.004;2022-07-06T14:23:16;3.25;;;0.90;;
10432;SDS011;5263;48.680;9.004;2022-07-06T14:25:42;6.82;;;1.10;;
10432;SDS011;5263;48.680;9.004;2022-07-06T14:28:09;2.42;;;0.63;;
10432;SDS011;5263;48.680;9.004;2022-07-06T14:30:35;1.27;;;0.57;;
10432;SDS011;5263;48.680;9.004;2022-07-06T14:33:02;2.28;;;0.55;;
10432;SDS011;5263;48.680;9.004;2022-07-06T14:35:35;1.58;;;0.60;;
10432;SDS011;5263;48.680;9.004;2022-07-06T14:38:01;2.58;;;0.73;;
10432;SDS011;5263;48.680;9.004;2022-07-06T14:40:28;2.20;;;0.80;;
10432;SDS011;5263;48.680;9.004;2022-07-06T14:42:54;4.68;;;0.70;;
10432;SDS011;5263;48.680;9.004;2022-07-06T14:45:19;5.68;;;0.50;;
10432;SDS011;5263;48.680;9.004;2022-07-06T14:47:45;2.50;;;0.60;;
10432;SDS011;5263;48.680;9.004;2022-07-06T14:50:10;0.98;;;0.68;;
10432;SDS011;5263;48.680;9.004;2022-07-06T14:52:36;1.77;;;0.68;;
10432;SDS011;5263;48.680;9.004;2022-07-06T14:55:02;3.65;;;0.50;;
10432;SDS011;5263;48.680;9.004;2022-07-06T14:57:28;3.10;;;0.80;;
10432;SDS011;5263;48.680;9.004;2022-07-06T14:59:53;1.63;;;0.70;;
10432;SDS011;5263;48.680;9.004;2022-07-06T15:02:19;5.57;;;0.63;;
10432;SDS011;5263;48.680;9.004;2022-07-06T15:04:44;2.08;;;0.85;;
10432;SDS011;5263;48.680;9.004;2022-07-06T15:07:10;2.38;;;0.73;;
10432;SDS011;5263;48.680;9.004;2022-07-06T15:09:35;3.20;;;0.60;;
10432;SDS011;5263;48.680;9.004;2022-07-06T15:12:01;1.03;;;0.60;;
10432;SDS011;5263;48.680;9.004;2022-07-06T15:14:27;2.23;;;0.50;;
10432;SDS011;5263;48.680;9.004;2022-07-06T15:16:53;1.27;;;0.80;;
10432;SDS011;5263;48.680;9.004;2022-07-06T15:19:19;2.47;;;0.60;;
10432;SDS011;5263;48.680;9.004;2022-07-06T15:21:45;0.70;;;0.57;;
10432;SDS011;5263;48.680;9.004;2022-07-06T15:24:10;3.07;;;0.60;;